Time;durP1;ratioP1;P1;durP2;ratioP2;P2;SDS_P1;SDS_P2;PMS_P1;PMS_P2;Temp;Humidity;BMP_temperature;BMP_pressure;BME280_temperature;BME280_humidity;BME280_pressure;Samples;Min_cycle;Max_cycle;Signal;HPM_P1;HPM_P2
2022/12/22 05:30:54;;;;;;;30.75;5.68;;;13.30;85.30;;;;;;5708784;23;20067;-75
2022/12/22 05:33:20;;;;;;;35.13;5.55;;;13.30;85.00;;;;;;4957129;28;20035;-75
2022/12/22 05:35:46;;;;;;;40.00;5.45;;;13.30;85.20;;;;;;4956726;29;20031;-76
2022/12/22 05:38:11;;;;;;;33.67;5.18;;;13.30;85.40;;;;;;4946963;28;20031;-75
2022/12/22 05:40:37;;;;;;;29.88;5.32;;;13.30;85.20;;;;;;4920689;29;20039;-76
2022/12/22 05:43:03;;;;;;;29.10;4.60;;;13.30;85.10;;;;;;4938170;29;20020;-75
2022/12/22 05:45:29;;;;;;;34.38;5.22;;;13.30;85.10;;;;;;4937819;29;20040;-75
2022/12/22 05:47:54;;;;;;;25.48;5.10;;;13.30;85.00;;;;;;4960518;28;20031;-75
2022/12/22 05:50:23;;;;;;;30.38;4.93;;;13.20;84.80;;;;;;4976357;28;20030;-75
2022/12/22 05:52:49;;;;;;;42.15;6.47;;;13.20;85.00;;;;;;4956317;28;20049;-75
2022/12/22 05:55:15;;;;;;;28.42;5.60;;;13.20;85.20;;;;;;4941574;29;20238;-76
2022/12/22 05:57:41;;;;;;;26.05;4.72;;;13.20;85.30;;;;;;4936814;29;20184;-76
2022/12/22 06:00:11;;;;;;;31.05;5.75;;;13.20;85.50;;;;;;4946074;29;20075;-75
2022/12/22 06:02:37;;;;;;;28.55;4.97;;;13.20;85.10;;;;;;4950957;28;20094;-76
2022/12/22 06:05:03;;;;;;;21.40;4.28;;;13.20;85.50;;;;;;4946400;29;20435;-76
2022/12/22 06:07:29;;;;;;;23.95;5.65;;;13.20;85.20;;;;;;4949724;29;20031;-77
2022/12/22 06:09:55;;;;;;;38.25;5.38;;;13.20;84.90;;;;;;4939053;29;20036;-76
2022/12/22 06:12:20;;;;;;;42.97;5.80;;;13.20;85.20;;;;;;4954102;29;20031;-77
2022/12/22 06:14:46;;;;;;;29.55;5.07;;;13.20;85.20;;;;;;4957373;29;20086;-77
2022/12/22 06:17:12;;;;;;;30.50;4.22;;;13.20;85.60;;;;;;4939327;29;20079;-77
2022/12/22 06:19:37;;;;;;;37.47;6.43;;;13.20;85.00;;;;;;4943671;29;20486;-76
2022/12/22 06:22:03;;;;;;;24.95;5.72;;;13.20;84.90;;;;;;4957145;29;20082;-76
2022/12/22 06:24:29;;;;;;;26.42;4.80;;;13.20;85.20;;;;;;4949144;28;20050;-76
2022/12/22 06:26:54;;;;;;;30.63;5.25;;;13.20;85.20;;;;;;4936697;29;20070;-76
2022/12/22 06:29:20;;;;;;;21.98;4.35;;;13.20;85.40;;;;;;4938071;29;20039;-75
2022/12/22 06:31:46;;;;;;;31.67;5.13;;;13.10;85.40;;;;;;4946566;28;20043;-76
2022/12/22 06:34:12;;;;;;;28.67;5.35;;;13.10;85.20;;;;;;4939820;29;20179;-75
2022/12/22 06:36:38;;;;;;;25.73;5.32;;;13.10;85.30;;;;;;4957136;29;20027;-75
2022/12/22 06:39:05;;;;;;;25.02;4.65;;;13.10;85.40;;;;;;4956976;28;20163;-75
2022/12/22 06:44:15;;;;;;;35.22;5.00;;;13.10;85.60;;;;;;4938137;29;20510;-76
2022/12/22 06:46:40;;;;;;;36.10;6.57;;;13.00;85.30;;;;;;4940746;28;20031;-76
2022/12/22 06:49:06;;;;;;;26.38;5.00;;;13.00;85.10;;;;;;4947883;28;20400;-75
2022/12/22 06:51:32;;;;;;;39.60;6.32;;;13.10;85.20;;;;;;4937900;29;20114;-75
2022/12/22 06:53:57;;;;;;;32.85;6.18;;;13.10;85.10;;;;;;4937735;29;20480;-75
2022/12/22 06:56:23;;;;;;;36.30;5.55;;;13.10;85.30;;;;;;4937840;29;20034;-75
2022/12/22 06:58:48;;;;;;;32.33;5.82;;;13.10;85.20;;;;;;4943288;29;20751;-75
2022/12/22 07:01:14;;;;;;;30.65;5.03;;;13.10;84.70;;;;;;4941631;29;20039;-75
2022/12/22 07:03:40;;;;;;;34.42;5.97;;;13.10;85.30;;;;;;4945419;29;20047;-75
2022/12/22 07:06:05;;;;;;;30.33;4.80;;;13.20;84.90;;;;;;4941747;29;20032;-75
2022/12/22 07:08:31;;;;;;;27.98;4.72;;;13.20;84.80;;;;;;4953280;29;20038;-75
2022/12/22 07:10:57;;;;;;;26.88;5.38;;;13.20;84.60;;;;;;4955973;29;20038;-76
2022/12/22 07:13:26;;;;;;;31.58;5.60;;;13.20;84.70;;;;;;4940378;29;20027;-76
2022/12/22 07:15:52;;;;;;;26.20;4.32;;;13.10;84.70;;;;;;4959126;29;20031;-76
2022/12/22 07:18:18;;;;;;;23.33;5.75;;;13.20;84.50;;;;;;4941610;29;20054;-75
2022/12/22 07:20:43;;;;;;;29.38;4.95;;;13.10;84.80;;;;;;4956559;29;20051;-75
2022/12/22 07:23:09;;;;;;;28.15;6.38;;;13.10;84.80;;;;;;4941775;29;20489;-76
2022/12/22 07:25:35;;;;;;;27.50;5.70;;;13.10;84.50;;;;;;4956028;29;20486;-75
2022/12/22 07:28:01;;;;;;;28.85;4.63;;;13.00;85.00;;;;;;4958637;29;20106;-75
2022/12/22 07:30:27;;;;;;;24.25;4.53;;;13.00;84.90;;;;;;4958678;29;20134;-75
2022/12/22 07:32:52;;;;;;;39.22;5.57;;;13.10;85.10;;;;;;4958771;28;20027;-76
2022/12/22 07:35:18;;;;;;;24.35;5.50;;;13.00;84.80;;;;;;4957949;29;20395;-75
2022/12/22 07:37:43;;;;;;;30.20;4.35;;;13.00;85.10;;;;;;4941425;29;20027;-76
2022/12/22 07:40:10;;;;;;;29.10;6.15;;;13.10;85.20;;;;;;4955847;29;20028;-75
2022/12/22 07:42:44;;;;;;;22.25;4.90;;;13.00;85.10;;;;;;4957014;29;20102;-75
2022/12/22 07:45:18;;;;;;;31.52;5.30;;;13.00;85.20;;;;;;4960276;28;20035;-75
2022/12/22 07:47:45;;;;;;;45.97;5.28;;;13.00;85.30;;;;;;4959963;28;20122;-76
2022/12/22 07:50:26;;;;;;;27.65;5.32;;;13.10;85.40;;;;;;4948808;29;21119;-77
2022/12/22 07:52:57;;;;;;;25.17;5.53;;;13.10;85.20;;;;;;4943285;29;20150;-81
2022/12/22 07:55:23;;;;;;;;;;;13.10;85.40;;;;;;4956254;28;20856;-81
2022/12/22 07:57:48;;;;;;;29.67;4.93;;;13.10;85.30;;;;;;4957702;29;19907;-81
2022/12/22 08:00:15;;;;;;;30.33;5.20;;;13.20;85.10;;;;;;4948974;28;20091;-82
2022/12/22 08:02:41;;;;;;;30.40;5.15;;;13.20;85.20;;;;;;4957962;28;20035;-81
2022/12/22 08:05:08;;;;;;;30.05;5.25;;;13.20;85.20;;;;;;4952143;28;20024;-79
2022/12/22 08:07:34;;;;;;;31.67;6.43;;;13.20;85.20;;;;;;4938478;29;20031;-81
2022/12/22 08:10:00;;;;;;;26.80;5.28;;;13.20;85.20;;;;;;4955148;29;20106;-82
2022/12/22 08:12:26;;;;;;;33.20;6.05;;;13.20;85.20;;;;;;4958718;29;20062;-82
2022/12/22 08:14:52;;;;;;;38.75;5.50;;;13.20;84.90;;;;;;4958104;28;20027;-82
2022/12/22 08:17:18;;;;;;;27.52;5.07;;;13.20;85.20;;;;;;4937758;29;20039;-81
2022/12/22 08:19:43;;;;;;;34.22;5.55;;;13.30;85.20;;;;;;4957730;29;20341;-81
2022/12/22 08:22:10;;;;;;;34.17;5.72;;;13.30;85.00;;;;;;4940510;29;20047;-81
2022/12/22 08:24:36;;;;;;;30.98;5.05;;;13.30;85.30;;;;;;4956394;29;20091;-81
2022/12/22 08:27:07;;;;;;;27.55;5.65;;;13.30;85.20;;;;;;4957084;28;20118;-82
2022/12/22 08:29:37;;;;;;;41.92;5.75;;;13.30;85.40;;;;;;4958686;29;20049;-82
2022/12/22 08:32:03;;;;;;;29.23;4.75;;;13.30;85.10;;;;;;4938644;29;20043;-82
2022/12/22 08:34:29;;;;;;;39.25;5.75;;;13.30;85.50;;;;;;4957611;28;20034;-82
2022/12/22 08:36:58;;;;;;;19.15;5.07;;;13.30;85.50;;;;;;4957167;28;20032;-82
2022/12/22 08:39:25;;;;;;;39.90;5.63;;;13.30;85.40;;;;;;4939434;29;20462;-81
2022/12/22 08:41:51;;;;;;;31.90;5.40;;;13.40;85.30;;;;;;4956751;28;20023;-82
2022/12/22 08:44:24;;;;;;;39.83;7.28;;;13.40;85.40;;;;;;4939524;29;20035;-81
2022/12/22 08:46:52;;;;;;;36.40;5.88;;;13.50;85.20;;;;;;4959027;28;20034;-81
2022/12/22 08:49:18;;;;;;;32.33;4.82;;;13.40;85.20;;;;;;4956327;28;20027;-81
2022/12/22 08:51:45;;;;;;;29.77;5.35;;;13.50;85.30;;;;;;4956071;29;20047;-81
2022/12/22 08:54:11;;;;;;;21.75;4.10;;;13.50;85.00;;;;;;4953790;29;20701;-81
2022/12/22 08:56:37;;;;;;;38.13;5.47;;;13.50;85.10;;;;;;4956393;28;20023;-81
2022/12/22 08:59:04;;;;;;;31.30;4.85;;;13.50;85.00;;;;;;4953432;29;20066;-80
2022/12/22 09:01:32;;;;;;;28.55;5.25;;;13.50;84.90;;;;;;4943806;28;20078;-78
2022/12/22 09:03:58;;;;;;;40.40;5.85;;;13.50;85.00;;;;;;4952220;29;20039;-78
2022/12/22 09:06:24;;;;;;;34.92;5.82;;;13.50;84.90;;;;;;4932428;29;20031;-78
2022/12/22 09:08:58;;;;;;;22.13;4.55;;;13.60;84.80;;;;;;4938227;29;20213;-79
2022/12/22 09:11:25;;;;;;;26.30;5.65;;;13.70;84.70;;;;;;4949677;29;20030;-78
2022/12/22 09:13:52;;;;;;;20.17;3.92;;;13.60;84.40;;;;;;4944638;29;20039;-78
2022/12/22 09:16:19;;;;;;;23.25;4.72;;;13.60;84.40;;;;;;4920348;29;20031;-78
2022/12/22 09:18:45;;;;;;;34.03;5.45;;;13.70;84.50;;;;;;4938982;29;20031;-78
2022/12/22 09:21:11;;;;;;;33.70;6.45;;;13.70;84.30;;;;;;4937990;29;20035;-78
2022/12/22 09:23:36;;;;;;;21.48;4.63;;;13.70;84.40;;;;;;4938592;29;20055;-77
2022/12/22 09:26:14;;;;;;;28.00;5.30;;;13.70;84.60;;;;;;4938585;29;20035;-78
2022/12/22 09:28:40;;;;;;;44.33;5.22;;;13.70;84.20;;;;;;4938856;29;20028;-78
2022/12/22 09:31:06;;;;;;;28.70;5.20;;;13.70;84.40;;;;;;4926062;29;20051;-79
2022/12/22 09:33:35;;;;;;;25.85;5.03;;;13.70;84.30;;;;;;4949308;28;20052;-80
2022/12/22 09:36:05;;;;;;;25.67;5.13;;;13.80;84.40;;;;;;4918984;29;20085;-78
2022/12/22 09:38:31;;;;;;;34.13;6.20;;;13.70;84.20;;;;;;4952925;28;20027;-81
2022/12/22 09:40:56;;;;;;;33.00;5.32;;;13.80;84.30;;;;;;4937496;28;20039;-81
2022/12/22 09:43:29;;;;;;;25.85;4.05;;;13.80;84.30;;;;;;4954825;28;20027;-80
2022/12/22 09:45:58;;;;;;;33.45;5.15;;;13.70;84.30;;;;;;4934162;29;20518;-81
2022/12/22 09:48:33;;;;;;;31.08;6.38;;;13.80;84.20;;;;;;4938323;29;20114;-81
2022/12/22 09:50:58;;;;;;;32.03;5.30;;;13.80;84.50;;;;;;4950754;28;20034;-81
2022/12/22 09:53:24;;;;;;;26.52;4.55;;;13.80;84.40;;;;;;4935995;29;20031;-81
2022/12/22 09:55:50;;;;;;;30.58;4.93;;;13.80;84.40;;;;;;4954922;28;20039;-81
2022/12/22 09:58:28;;;;;;;36.40;5.93;;;13.80;84.30;;;;;;4947372;29;20035;-80
2022/12/22 10:01:15;;;;;;;25.10;5.38;;;13.80;84.30;;;;;;4947564;28;20106;-81
2022/12/22 10:03:53;;;;;;;25.23;4.65;;;13.80;84.60;;;;;;4931026;28;20114;-81
2022/12/22 10:06:35;;;;;;;34.55;5.03;;;13.80;84.60;;;;;;4935706;29;20118;-81
2022/12/22 10:09:13;;;;;;;25.83;4.25;;;13.80;84.50;;;;;;4946814;28;20028;-81
2022/12/22 10:11:39;;;;;;;32.63;5.45;;;13.80;84.70;;;;;;4933823;29;20055;-81
2022/12/22 10:14:04;;;;;;;27.05;5.40;;;13.80;84.80;;;;;;4945890;28;20026;-81
2022/12/22 10:16:30;;;;;;;37.50;4.95;;;13.80;84.90;;;;;;4948699;29;20483;-81
2022/12/22 10:19:08;;;;;;;29.10;5.50;;;13.80;84.80;;;;;;4936643;28;20027;-81
2022/12/22 10:21:34;;;;;;;28.63;4.40;;;13.80;84.80;;;;;;4947515;29;20050;-80
2022/12/22 10:23:59;;;;;;;24.70;5.35;;;13.90;85.10;;;;;;4949781;28;20035;-81
2022/12/22 10:26:28;;;;;;;36.97;6.20;;;13.80;85.10;;;;;;4944084;28;20035;-81
2022/12/22 10:29:06;;;;;;;27.30;5.45;;;13.80;85.30;;;;;;4946924;28;20436;-80
2022/12/22 10:31:34;;;;;;;24.58;4.90;;;13.80;85.50;;;;;;4946060;28;20052;-81
2022/12/22 10:34:12;;;;;;;28.05;4.85;;;13.80;85.60;;;;;;4949204;28;20036;-81
2022/12/22 10:36:40;;;;;;;30.55;4.22;;;13.80;85.90;;;;;;4952141;29;20055;-81
2022/12/22 10:39:09;;;;;;;44.13;5.93;;;13.80;85.90;;;;;;4950965;28;20046;-80
2022/12/22 10:41:46;;;;;;;26.00;4.30;;;13.80;86.00;;;;;;4948947;29;20421;-80
2022/12/22 10:44:15;;;;;;;31.45;5.28;;;13.80;86.10;;;;;;4959009;28;20023;-80
2022/12/22 10:46:50;;;;;;;19.60;4.13;;;13.80;86.30;;;;;;4952658;28;20035;-81
2022/12/22 10:49:46;;;;;;;22.15;5.47;;;13.80;86.40;;;;;;4949849;28;20047;-81
2022/12/22 10:52:16;;;;;;;34.15;5.55;;;13.80;86.50;;;;;;4931439;28;20035;-81
2022/12/22 10:54:43;;;;;;;;;;;13.80;86.50;;;;;;4951596;28;20087;-81
2022/12/22 10:57:12;;;;;;;26.23;4.20;;;13.90;86.50;;;;;;4939933;29;20374;-81
2022/12/22 10:59:54;;;;;;;15.20;4.53;;;13.90;86.60;;;;;;4955424;28;20043;-81
2022/12/22 11:02:20;;;;;;;30.27;5.80;;;13.90;86.80;;;;;;4953843;28;20046;-81
2022/12/22 11:04:46;;;;;;;29.58;5.05;;;13.80;86.90;;;;;;4939375;29;20090;-81
2022/12/22 11:07:12;;;;;;;21.98;5.68;;;13.80;87.10;;;;;;4951902;29;20575;-80
2022/12/22 11:09:38;;;;;;;26.73;4.40;;;13.90;87.30;;;;;;4947383;28;20242;-81
2022/12/22 11:12:33;;;;;;;29.63;4.63;;;13.80;87.30;;;;;;4953908;28;20026;-81
2022/12/22 11:15:30;;;;;;;31.48;5.70;;;13.90;87.30;;;;;;4952381;28;20043;-81
2022/12/22 11:18:04;;;;;;;22.10;5.05;;;13.90;87.60;;;;;;4938682;29;20054;-81
2022/12/22 11:20:33;;;;;;;27.45;4.32;;;13.80;87.60;;;;;;4951715;28;20039;-81
2022/12/22 11:23:17;;;;;;;26.17;4.85;;;13.90;87.70;;;;;;4949093;28;20028;-81
2022/12/22 11:26:10;;;;;;;30.67;5.40;;;13.90;87.90;;;;;;4934165;29;20043;-81
2022/12/22 11:28:51;;;;;;;36.85;5.10;;;13.90;87.90;;;;;;4947854;28;20027;-82
2022/12/22 11:31:48;;;;;;;29.75;4.63;;;13.90;88.00;;;;;;4937358;29;20134;-82
2022/12/22 11:34:22;;;;;;;30.83;5.43;;;13.90;88.10;;;;;;4935762;28;20042;-82
2022/12/22 11:36:56;;;;;;;16.20;3.22;;;13.90;88.20;;;;;;4955090;28;20031;-82
2022/12/22 11:40:18;;;;;;;26.27;4.30;;;13.90;88.30;;;;;;4936802;28;20776;-82
2022/12/22 11:43:09;;;;;;;17.40;3.55;;;13.90;88.30;;;;;;4889380;29;20039;-80
2022/12/22 11:45:56;;;;;;;21.38;3.80;;;13.90;88.60;;;;;;4887636;29;20033;-79
2022/12/22 11:48:24;;;;;;;20.70;4.63;;;13.90;88.60;;;;;;4928611;29;20066;-78
2022/12/22 11:50:55;;;;;;;12.80;3.65;;;14.00;88.50;;;;;;4949088;28;20087;-80
2022/12/22 11:53:43;;;;;;;14.23;2.83;;;14.00;88.50;;;;;;4943929;28;20028;-82
2022/12/22 11:56:25;;;;;;;23.08;4.32;;;14.00;88.60;;;;;;4952418;28;20478;-86
2022/12/22 11:58:57;;;;;;;19.88;3.53;;;14.00;88.50;;;;;;4941297;29;20031;-87
2022/12/22 12:01:50;;;;;;;14.95;3.30;;;14.00;88.70;;;;;;4933662;29;20467;-87
2022/12/22 12:04:38;;;;;;;19.23;4.72;;;14.00;88.80;;;;;;4953331;28;20032;-89
2022/12/22 12:07:24;;;;;;;16.98;3.20;;;14.00;88.90;;;;;;4954556;28;20043;-83
2022/12/22 12:10:10;;;;;;;13.55;2.70;;;14.00;88.90;;;;;;4938051;29;20027;-92
2022/12/22 12:13:02;;;;;;;15.07;3.75;;;14.00;89.00;;;;;;4933056;29;20075;-77
2022/12/22 12:15:39;;;;;;;12.75;2.78;;;14.00;89.10;;;;;;4945190;28;20020;-83
2022/12/22 12:18:27;;;;;;;8.93;2.40;;;14.00;89.20;;;;;;4936920;28;20043;-84
2022/12/22 12:21:08;;;;;;;8.88;2.55;;;14.00;89.10;;;;;;4958168;28;20041;-85
2022/12/22 12:24:08;;;;;;;5.05;2.40;;;14.00;89.20;;;;;;4940665;29;20482;-85
2022/12/22 12:26:43;;;;;;;10.52;2.50;;;14.10;89.10;;;;;;4937496;29;20054;-84
2022/12/22 12:29:28;;;;;;;6.53;2.60;;;14.10;89.20;;;;;;4941035;28;20580;-86
2022/12/22 12:32:02;;;;;;;7.47;1.70;;;14.10;89.10;;;;;;4940546;29;20098;-84
2022/12/22 12:34:32;;;;;;;5.63;1.95;;;14.10;89.10;;;;;;4948906;28;20023;-86
2022/12/22 12:37:16;;;;;;;4.63;1.95;;;14.20;89.10;;;;;;4939434;29;20027;-83
2022/12/22 12:40:00;;;;;;;3.38;1.35;;;14.10;89.20;;;;;;4957854;28;20466;-85
2022/12/22 12:42:46;;;;;;;6.35;1.35;;;14.10;89.20;;;;;;4951588;28;20067;-88
2022/12/22 12:45:41;;;;;;;8.30;1.70;;;14.00;89.20;;;;;;4946756;28;20083;-90
2022/12/22 12:48:19;;;;;;;3.40;1.20;;;14.10;89.30;;;;;;4950800;29;20034;-90
2022/12/22 12:50:55;;;;;;;3.30;1.55;;;14.10;89.10;;;;;;4958699;28;20034;-89
2022/12/22 12:53:25;;;;;;;2.90;1.00;;;14.10;89.00;;;;;;4940694;29;20023;-88
2022/12/22 12:55:52;;;;;;;5.35;1.55;;;14.20;89.10;;;;;;4933989;29;20059;-88
2022/12/22 12:58:41;;;;;;;5.05;1.92;;;14.20;88.90;;;;;;4939039;28;20094;-87
2022/12/22 13:01:31;;;;;;;1.90;0.75;;;14.20;88.90;;;;;;4930839;29;20027;-89
2022/12/22 13:03:57;;;;;;;;;;;14.20;88.80;;;;;;4942613;28;20070;-89
2022/12/22 13:06:45;;;;;;;3.20;1.10;;;14.30;88.90;;;;;;4964162;28;19993;-88
2022/12/22 13:09:17;;;;;;;6.75;1.13;;;14.30;88.80;;;;;;4947324;28;20035;-88
2022/12/22 13:11:43;;;;;;;2.58;1.10;;;14.40;88.80;;;;;;4939491;28;20019;-88
2022/12/22 13:14:09;;;;;;;3.78;1.20;;;14.30;88.60;;;;;;4957827;28;20087;-88
2022/12/22 13:16:37;;;;;;;4.03;1.02;;;14.40;88.80;;;;;;4937051;29;20027;-87
2022/12/22 13:19:13;;;;;;;2.65;1.30;;;14.40;88.70;;;;;;4934151;29;20442;-88
2022/12/22 13:21:43;;;;;;;3.65;1.50;;;14.40;88.60;;;;;;4934427;29;20027;-87
2022/12/22 13:24:11;;;;;;;4.45;1.33;;;14.40;88.80;;;;;;4951518;28;20566;-90
2022/12/22 13:26:39;;;;;;;3.38;1.48;;;14.50;88.80;;;;;;4934723;29;20088;-88
2022/12/22 13:29:17;;;;;;;3.00;1.55;;;14.50;88.70;;;;;;4952306;28;20063;-86
2022/12/22 13:31:46;;;;;;;2.83;1.10;;;14.50;88.70;;;;;;4936699;29;20075;-85
2022/12/22 13:34:21;;;;;;;4.13;1.08;;;14.50;88.80;;;;;;4938148;29;20027;-88
2022/12/22 13:36:50;;;;;;;1.52;0.80;;;14.50;88.80;;;;;;4941109;28;20028;-88
2022/12/22 13:39:16;;;;;;;2.63;0.90;;;14.60;88.70;;;;;;4944279;28;20040;-88
2022/12/22 13:41:45;;;;;;;0.73;0.50;;;14.60;88.70;;;;;;4948742;28;20038;-88
2022/12/22 13:44:17;;;;;;;1.83;0.70;;;14.60;88.80;;;;;;4939597;29;20087;-87
2022/12/22 13:46:42;;;;;;;1.27;0.60;;;14.60;88.90;;;;;;4953245;28;20047;-89
2022/12/22 13:49:14;;;;;;;3.08;0.88;;;14.60;88.90;;;;;;4957707;28;20391;-88
2022/12/22 13:51:41;;;;;;;2.65;0.70;;;14.70;89.00;;;;;;4945633;28;20024;-88
2022/12/22 13:54:17;;;;;;;1.83;1.00;;;14.70;89.00;;;;;;4921548;29;20115;-88
2022/12/22 13:56:47;;;;;;;2.47;0.70;;;14.80;89.00;;;;;;4923032;29;20452;-88
2022/12/22 13:59:39;;;;;;;1.65;0.70;;;14.80;88.90;;;;;;4927798;29;20510;-88
2022/12/22 14:02:07;;;;;;;1.08;0.80;;;14.80;88.90;;;;;;4954918;28;20043;-87
2022/12/22 14:04:35;;;;;;;1.35;0.68;;;14.80;89.00;;;;;;4956838;28;20031;-87
2022/12/22 14:07:18;;;;;;;1.80;0.70;;;14.80;89.00;;;;;;4925248;29;20090;-88
2022/12/22 14:09:49;;;;;;;3.15;1.23;;;14.90;89.10;;;;;;4931776;29;20039;-88
2022/12/22 14:12:21;;;;;;;1.55;0.88;;;14.90;89.10;;;;;;4955190;28;20387;-87
2022/12/22 14:14:49;;;;;;;3.20;0.85;;;15.00;89.10;;;;;;4949331;28;20055;-82
2022/12/22 14:17:25;;;;;;;1.83;0.70;;;14.90;89.10;;;;;;4926178;29;20023;-87
2022/12/22 14:20:08;;;;;;;1.80;1.15;;;14.90;89.20;;;;;;4943208;28;20043;-86
2022/12/22 14:22:46;;;;;;;1.45;0.80;;;14.90;89.30;;;;;;4949229;28;20040;-88
2022/12/22 14:25:17;;;;;;;2.20;0.77;;;15.00;89.30;;;;;;4949855;28;20089;-88
2022/12/22 14:27:55;;;;;;;1.67;0.90;;;15.00;89.30;;;;;;4940571;28;20027;-87
2022/12/22 14:30:25;;;;;;;1.38;0.95;;;15.00;89.40;;;;;;4941572;28;20058;-87
2022/12/22 14:32:56;;;;;;;1.70;0.82;;;15.00;89.50;;;;;;4942251;28;20032;-87
2022/12/22 14:35:22;;;;;;;1.75;0.98;;;15.00;89.40;;;;;;4935306;29;20150;-87
2022/12/22 14:38:15;;;;;;;1.90;0.90;;;15.10;89.40;;;;;;4933701;28;20055;-87
2022/12/22 14:40:42;;;;;;;1.55;0.70;;;15.10;89.30;;;;;;4942121;28;20027;-89
2022/12/22 14:43:17;;;;;;;1.83;0.93;;;15.20;89.30;;;;;;4926950;28;20031;-87
2022/12/22 14:45:45;;;;;;;2.25;1.10;;;15.20;89.40;;;;;;4939525;28;20028;-86
2022/12/22 14:48:23;;;;;;;2.17;1.05;;;15.20;89.30;;;;;;4941511;28;20151;-87
2022/12/22 14:50:50;;;;;;;1.40;0.93;;;15.20;89.20;;;;;;4941244;28;20024;-87
2022/12/22 14:53:24;;;;;;;3.00;1.30;;;15.20;89.20;;;;;;4944276;28;20987;-87
2022/12/22 14:55:51;;;;;;;1.58;1.02;;;15.20;89.20;;;;;;4947435;29;20035;-87
2022/12/22 14:58:37;;;;;;;2.20;1.42;;;15.30;89.20;;;;;;4941492;28;20038;-87
2022/12/22 15:01:29;;;;;;;3.05;1.10;;;15.30;89.20;;;;;;4920797;29;20024;-88
2022/12/22 15:04:05;;;;;;;2.90;1.20;;;15.30;89.20;;;;;;4942951;28;20404;-86
2022/12/22 15:06:40;;;;;;;2.83;1.00;;;15.30;89.10;;;;;;4922617;28;20046;-87
2022/12/22 15:09:23;;;;;;;2.17;1.30;;;15.30;89.10;;;;;;4942733;28;20020;-87
2022/12/22 15:11:53;;;;;;;2.03;0.90;;;15.30;89.10;;;;;;4942268;28;20027;-87
2022/12/22 15:14:21;;;;;;;1.20;0.70;;;15.30;89.00;;;;;;4938956;28;20090;-87
2022/12/22 15:16:48;;;;;;;1.92;0.90;;;15.30;89.00;;;;;;4942471;28;20037;-86
2022/12/22 15:19:16;;;;;;;2.92;1.27;;;15.30;88.90;;;;;;4933951;29;20038;-86
2022/12/22 15:21:42;;;;;;;3.22;1.10;;;15.30;88.90;;;;;;4942006;28;20037;-87
2022/12/22 15:24:14;;;;;;;2.50;1.20;;;15.30;89.00;;;;;;4931396;29;20104;-82
2022/12/22 15:26:40;;;;;;;2.33;1.00;;;15.40;88.80;;;;;;4941560;28;20024;-85
2022/12/22 15:29:06;;;;;;;1.70;0.90;;;15.40;88.80;;;;;;4931767;29;20024;-85
2022/12/22 15:31:32;;;;;;;2.55;1.00;;;15.30;88.80;;;;;;4941767;28;20054;-85
2022/12/22 15:34:03;;;;;;;1.65;1.02;;;15.40;88.80;;;;;;4947804;28;20023;-87
2022/12/22 15:36:29;;;;;;;1.85;0.90;;;15.40;88.80;;;;;;4929146;29;20107;-86
2022/12/22 15:38:55;;;;;;;3.20;1.17;;;15.40;88.70;;;;;;4944306;28;21032;-86
2022/12/22 15:41:21;;;;;;;3.15;1.30;;;15.40;88.70;;;;;;4942114;28;20023;-85
2022/12/22 15:43:46;;;;;;;2.10;1.10;;;15.40;88.70;;;;;;4948902;28;20886;-86
2022/12/22 15:46:17;;;;;;;1.60;0.57;;;15.50;88.70;;;;;;4949099;28;20114;-85
2022/12/22 15:48:44;;;;;;;2.30;0.90;;;15.50;88.60;;;;;;4946465;28;20023;-85
2022/12/22 15:51:26;;;;;;;1.75;0.90;;;15.50;88.70;;;;;;4954369;28;20585;-85
2022/12/22 15:53:53;;;;;;;2.05;0.73;;;15.50;88.70;;;;;;4952798;28;20035;-84
2022/12/22 15:56:22;;;;;;;3.88;0.90;;;15.50;88.80;;;;;;4936418;28;20170;-85
2022/12/22 15:58:48;;;;;;;3.67;1.50;;;15.50;88.80;;;;;;4939437;29;20090;-86
2022/12/22 16:01:14;;;;;;;2.95;1.20;;;15.50;88.90;;;;;;4945786;28;20115;-86
2022/12/22 16:03:39;;;;;;;1.85;0.80;;;15.50;88.90;;;;;;4929923;28;20102;-85
2022/12/22 16:06:07;;;;;;;2.33;0.80;;;15.50;88.90;;;;;;4955605;28;20100;-87
2022/12/22 16:08:37;;;;;;;2.22;0.90;;;15.40;89.00;;;;;;4954190;28;20028;-86
2022/12/22 16:11:06;;;;;;;1.83;0.87;;;15.40;89.10;;;;;;4940292;29;20091;-86
2022/12/22 16:13:34;;;;;;;4.03;1.00;;;15.40;89.00;;;;;;4931443;28;20083;-85
2022/12/22 16:16:02;;;;;;;2.65;0.75;;;15.40;89.10;;;;;;4955476;28;20444;-87
2022/12/22 16:18:34;;;;;;;5.05;1.10;;;15.40;89.10;;;;;;4926501;28;20107;-82
2022/12/22 16:21:11;;;;;;;3.40;0.85;;;15.40;89.20;;;;;;4946219;28;20032;-82
2022/12/22 16:23:38;;;;;;;1.58;0.70;;;15.40;89.30;;;;;;4946651;28;20027;-83
2022/12/22 16:26:04;;;;;;;2.55;1.63;;;15.40;89.30;;;;;;4942160;28;20027;-82
2022/12/22 16:28:31;;;;;;;4.10;0.80;;;15.40;89.30;;;;;;4947639;28;20058;-83
2022/12/22 16:30:58;;;;;;;1.55;0.93;;;15.40;89.30;;;;;;4942243;28;20054;-86
2022/12/22 16:33:24;;;;;;;2.97;1.00;;;15.30;89.20;;;;;;4946741;28;20031;-82
2022/12/22 16:35:50;;;;;;;2.35;0.93;;;15.30;89.30;;;;;;4930850;29;20218;-82
2022/12/22 16:38:16;;;;;;;2.67;1.60;;;15.30;89.20;;;;;;4933909;29;20036;-82
2022/12/22 16:40:45;;;;;;;1.00;0.70;;;15.40;89.20;;;;;;4944657;28;20036;-82
2022/12/22 16:43:16;;;;;;;3.75;1.20;;;15.40;89.10;;;;;;4929616;29;20095;-82
2022/12/22 16:45:44;;;;;;;2.47;1.10;;;15.40;89.10;;;;;;4947530;28;20039;-82
2022/12/22 16:48:26;;;;;;;2.55;1.02;;;15.40;89.00;;;;;;4944046;28;20024;-82
2022/12/22 16:50:51;;;;;;;1.83;0.80;;;15.40;89.00;;;;;;4944737;28;20051;-82
2022/12/22 16:53:17;;;;;;;2.58;1.05;;;15.40;89.00;;;;;;4940886;28;20027;-82
2022/12/22 16:55:45;;;;;;;3.03;0.80;;;15.40;88.90;;;;;;4927436;29;20032;-81
2022/12/22 16:58:11;;;;;;;1.88;1.00;;;15.40;88.90;;;;;;4949974;28;20656;-82
2022/12/22 17:00:39;;;;;;;1.95;0.88;;;15.40;88.90;;;;;;4913639;28;20083;-84
2022/12/22 17:03:14;;;;;;;4.40;0.90;;;15.30;88.90;;;;;;4929195;28;20032;-81
2022/12/22 17:05:47;;;;;;;2.80;0.75;;;15.30;88.90;;;;;;4933489;29;20191;-81
2022/12/22 17:08:28;;;;;;;2.78;0.80;;;15.30;88.80;;;;;;4954881;28;20077;-82
2022/12/22 17:10:56;;;;;;;2.88;0.85;;;15.30;89.00;;;;;;4929714;29;20051;-81
2022/12/22 17:13:23;;;;;;;1.52;0.82;;;15.30;88.80;;;;;;4929851;28;20054;-82
2022/12/22 17:15:49;;;;;;;3.35;0.93;;;15.30;88.50;;;;;;4943833;28;20026;-86
2022/12/22 17:18:23;;;;;;;1.42;0.75;;;15.30;88.50;;;;;;4930091;28;20030;-81
2022/12/22 17:20:52;;;;;;;2.22;1.02;;;15.30;88.70;;;;;;4935051;29;20055;-80
2022/12/22 17:23:29;;;;;;;3.08;1.08;;;15.30;88.70;;;;;;4942164;28;20031;-78
2022/12/22 17:25:56;;;;;;;1.90;0.82;;;15.30;88.60;;;;;;4948179;28;20566;-77
2022/12/22 17:28:22;;;;;;;3.38;1.30;;;15.30;88.50;;;;;;4956331;28;20031;-77
2022/12/22 17:30:48;;;;;;;1.80;0.88;;;15.30;88.60;;;;;;4952499;28;20156;-77
2022/12/22 17:33:17;;;;;;;2.35;0.88;;;15.30;88.60;;;;;;4948819;28;20046;-78
2022/12/22 17:35:43;;;;;;;1.60;1.03;;;15.30;88.70;;;;;;4949406;28;20031;-77
2022/12/22 17:38:20;;;;;;;1.63;0.82;;;15.30;88.70;;;;;;4949908;28;20020;-78
2022/12/22 17:40:47;;;;;;;6.20;1.30;;;15.20;88.60;;;;;;4938551;28;20035;-77
2022/12/22 17:43:16;;;;;;;3.78;0.80;;;15.30;88.80;;;;;;4951093;28;20051;-79
2022/12/22 17:45:44;;;;;;;2.13;1.10;;;15.30;88.80;;;;;;4945232;28;20032;-79
2022/12/22 17:48:11;;;;;;;4.97;1.38;;;15.20;88.60;;;;;;4957309;28;20036;-79
2022/12/22 17:50:37;;;;;;;3.70;1.20;;;15.30;88.80;;;;;;4954875;28;20019;-79
2022/12/22 17:53:09;;;;;;;2.90;1.10;;;15.30;88.70;;;;;;4953801;28;20030;-79
2022/12/22 17:55:34;;;;;;;4.00;1.27;;;15.20;88.70;;;;;;4939597;28;20039;-79
2022/12/22 17:58:00;;;;;;;2.60;1.40;;;15.20;88.60;;;;;;4946658;28;20035;-79
2022/12/22 18:00:28;;;;;;;5.65;1.67;;;15.20;88.80;;;;;;4952131;28;20027;-79
2022/12/22 18:02:55;;;;;;;4.40;1.38;;;15.30;88.80;;;;;;4951329;28;20166;-79
2022/12/22 18:05:26;;;;;;;7.50;2.03;;;15.20;88.80;;;;;;4935561;29;20035;-79
2022/12/22 18:07:57;;;;;;;3.45;1.15;;;15.30;88.80;;;;;;4955407;28;20070;-79
2022/12/22 18:10:23;;;;;;;5.55;1.80;;;15.30;88.90;;;;;;4932930;28;20513;-79
2022/12/22 18:12:49;;;;;;;4.72;1.83;;;15.30;88.80;;;;;;4938949;29;20020;-80
2022/12/22 18:15:16;;;;;;;2.88;1.10;;;15.30;88.80;;;;;;4955476;28;20148;-79
2022/12/22 18:17:42;;;;;;;5.70;1.60;;;15.30;88.90;;;;;;4953192;28;20019;-79
2022/12/22 18:20:13;;;;;;;2.88;0.85;;;15.20;88.80;;;;;;4952379;28;20035;-79
2022/12/22 18:22:39;;;;;;;4.75;1.50;;;15.20;89.00;;;;;;4955957;28;20027;-79
2022/12/22 18:25:16;;;;;;;3.15;1.48;;;15.20;88.90;;;;;;4947459;28;20039;-80
2022/12/22 18:27:42;;;;;;;3.70;1.25;;;15.30;89.00;;;;;;4946083;28;20110;-79
2022/12/22 18:30:22;;;;;;;3.55;1.27;;;15.30;88.90;;;;;;4930651;29;20122;-80
2022/12/22 18:32:49;;;;;;;4.25;1.60;;;15.30;88.80;;;;;;4949862;28;20053;-82
2022/12/22 18:35:16;;;;;;;6.43;1.52;;;15.30;88.80;;;;;;4926004;29;20502;-83